createdAt,value
2022-07-29T00:00:37.087Z,0.00
2022-07-29T00:01:37.092Z,0.00
2022-07-29T00:02:37.118Z,0.00
2022-07-29T00:03:37.155Z,0.00
2022-07-29T00:04:37.166Z,0.00
2022-07-29T00:05:37.149Z,0.00
2022-07-29T00:06:37.106Z,0.00
2022-07-29T00:07:37.094Z,0.00
2022-07-29T00:08:37.088Z,0.00
2022-07-29T00:09:50.628Z,0.00
2022-07-29T00:10:37.107Z,0.00
2022-07-29T00:11:37.112Z,0.00
2022-07-29T00:12:37.160Z,0.00
2022-07-29T00:13:37.089Z,0.00
2022-07-29T00:14:37.089Z,0.00
2022-07-29T00:15:37.100Z,0.00
2022-07-29T00:16:37.242Z,0.00
2022-07-29T00:17:37.092Z,0.00
2022-07-29T00:18:37.093Z,0.00
2022-07-29T00:19:37.101Z,0.00
2022-07-29T00:20:37.095Z,0.00
2022-07-29T00:21:37.095Z,0.00
2022-07-29T00:22:37.108Z,0.00
2022-07-29T00:23:37.099Z,0.00
2022-07-29T00:24:37.098Z,0.00
2022-07-29T00:25:37.110Z,0.00
2022-07-29T00:26:37.114Z,0.00
2022-07-29T00:27:37.110Z,0.00
2022-07-29T00:28:37.115Z,0.00
2022-07-29T00:29:37.119Z,0.00
2022-07-29T00:30:37.099Z,0.00
2022-07-29T00:31:37.176Z,0.00
2022-07-29T00:32:37.101Z,0.00
2022-07-29T00:33:37.110Z,0.00
2022-07-29T00:34:37.112Z,0.00
2022-07-29T00:35:37.107Z,0.00
2022-07-29T00:36:37.099Z,0.00
2022-07-29T00:37:37.101Z,0.00
2022-07-29T00:38:37.103Z,0.00
2022-07-29T00:39:37.108Z,0.00
2022-07-29T00:40:37.130Z,0.00
2022-07-29T00:41:37.105Z,0.00
2022-07-29T00:42:37.111Z,0.00
2022-07-29T00:43:37.106Z,0.00
2022-07-29T00:44:37.114Z,0.00
2022-07-29T00:45:37.110Z,0.00
2022-07-29T00:46:37.150Z,0.00
2022-07-29T00:47:37.105Z,0.00
2022-07-29T00:48:37.193Z,0.00
2022-07-29T00:49:37.116Z,0.00
2022-07-29T00:50:37.108Z,0.00
2022-07-29T00:51:37.108Z,0.00
2022-07-29T00:52:37.122Z,0.00
2022-07-29T00:53:37.116Z,0.00
2022-07-29T00:54:39.225Z,0.00
2022-07-29T00:55:37.120Z,0.00
2022-07-29T00:56:37.129Z,0.00
2022-07-29T00:57:37.118Z,0.00
2022-07-29T00:58:37.119Z,0.00
2022-07-29T00:59:37.111Z,0.00
2022-07-29T01:00:37.247Z,0.00
2022-07-29T01:01:37.141Z,0.00
2022-07-29T01:02:37.217Z,0.00
2022-07-29T01:03:37.125Z,0.00
2022-07-29T01:04:37.111Z,0.00
2022-07-29T01:05:48.424Z,0.00
2022-07-29T01:06:37.119Z,0.00
2022-07-29T01:07:37.122Z,0.00
2022-07-29T01:08:37.121Z,0.00
2022-07-29T01:09:45.942Z,0.00
2022-07-29T01:10:37.130Z,0.00
2022-07-29T01:11:37.122Z,0.00
2022-07-29T01:12:37.135Z,0.00
2022-07-29T01:13:37.124Z,0.00
2022-07-29T01:14:37.123Z,0.00
2022-07-29T01:15:37.120Z,0.00
2022-07-29T01:16:37.216Z,0.00
2022-07-29T01:17:37.119Z,0.00
2022-07-29T01:18:37.145Z,0.00
2022-07-29T01:19:37.122Z,0.00
2022-07-29T01:20:37.122Z,0.00
2022-07-29T01:21:37.128Z,0.00
2022-07-29T01:22:37.120Z,0.00
2022-07-29T01:23:37.126Z,0.00
2022-07-29T01:24:37.125Z,0.00
2022-07-29T01:25:37.129Z,0.00
2022-07-29T01:26:37.122Z,0.00
2022-07-29T01:27:37.127Z,0.00
2022-07-29T01:28:37.125Z,0.00
2022-07-29T01:29:40.415Z,0.00
2022-07-29T01:30:37.123Z,0.00
2022-07-29T01:31:37.388Z,0.00
2022-07-29T01:32:37.127Z,0.00
2022-07-29T01:33:37.130Z,0.00
2022-07-29T01:34:37.118Z,0.00
2022-07-29T01:35:37.136Z,0.00
2022-07-29T01:36:37.122Z,0.00
2022-07-29T01:37:37.133Z,0.00
2022-07-29T01:38:37.122Z,0.00
2022-07-29T01:39:37.139Z,0.00
2022-07-29T01:40:37.130Z,0.00
2022-07-29T01:41:37.177Z,0.00
2022-07-29T01:42:37.123Z,0.00
2022-07-29T01:43:37.122Z,0.00
2022-07-29T01:44:37.125Z,0.00
2022-07-29T01:45:37.161Z,0.00
2022-07-29T01:46:37.173Z,0.00
2022-07-29T01:47:37.135Z,0.00
2022-07-29T01:48:37.143Z,0.00
2022-07-29T01:49:37.148Z,0.00
2022-07-29T01:50:37.125Z,0.00
2022-07-29T01:51:37.142Z,0.00
2022-07-29T01:52:37.133Z,0.00
2022-07-29T01:53:37.992Z,0.00
2022-07-29T01:54:37.133Z,0.00
2022-07-29T01:55:37.135Z,0.00
2022-07-29T01:56:37.157Z,0.00
2022-07-29T01:57:37.125Z,0.00
2022-07-29T01:58:37.126Z,0.00
2022-07-29T01:59:37.120Z,0.00
2022-07-29T02:00:37.128Z,0.00
2022-07-29T02:01:37.175Z,0.00
2022-07-29T02:02:37.140Z,0.00
2022-07-29T02:03:37.124Z,0.00
2022-07-29T02:04:37.159Z,0.00
2022-07-29T02:05:37.127Z,0.00
2022-07-29T02:06:37.127Z,0.00
2022-07-29T02:07:37.152Z,0.00
2022-07-29T02:08:37.134Z,0.00
2022-07-29T02:09:37.141Z,0.00
2022-07-29T02:10:37.138Z,0.00
2022-07-29T02:11:37.140Z,0.00
2022-07-29T02:12:37.144Z,0.00
2022-07-29T02:13:37.125Z,0.00
2022-07-29T02:14:37.125Z,0.00
2022-07-29T02:15:37.123Z,0.00
2022-07-29T02:16:37.173Z,0.00
2022-07-29T02:17:39.878Z,0.00
2022-07-29T02:18:37.124Z,0.00
2022-07-29T02:19:37.122Z,0.00
2022-07-29T02:20:37.126Z,0.00
2022-07-29T02:21:37.130Z,0.00
2022-07-29T02:22:37.130Z,0.00
2022-07-29T02:23:50.421Z,0.00
2022-07-29T02:24:37.144Z,0.00
2022-07-29T02:25:38.419Z,0.00
2022-07-29T02:26:37.148Z,0.00
2022-07-29T02:27:37.129Z,0.00
2022-07-29T02:28:37.153Z,0.00
2022-07-29T02:29:37.126Z,0.00
2022-07-29T02:30:37.125Z,0.00
2022-07-29T02:31:37.203Z,0.00
2022-07-29T02:32:37.123Z,0.00
2022-07-29T02:33:37.128Z,0.00
2022-07-29T02:34:37.128Z,0.00
2022-07-29T02:35:37.128Z,0.00
2022-07-29T02:36:37.122Z,0.00
2022-07-29T02:37:37.166Z,0.00
2022-07-29T02:38:37.132Z,0.00
2022-07-29T02:39:37.142Z,0.00
2022-07-29T02:40:37.137Z,0.00
2022-07-29T02:41:37.135Z,0.00
2022-07-29T02:42:37.119Z,4.00
2022-07-29T02:43:37.125Z,4.00
2022-07-29T02:44:37.124Z,0.00
2022-07-29T02:45:37.159Z,0.00
2022-07-29T02:46:37.190Z,0.00
2022-07-29T02:47:41.348Z,4.00
2022-07-29T02:48:37.165Z,4.00
2022-07-29T02:49:37.124Z,0.00
2022-07-29T02:50:37.121Z,4.00
2022-07-29T02:51:43.708Z,4.00
2022-07-29T02:52:37.131Z,4.00
2022-07-29T02:53:37.134Z,4.00
2022-07-29T02:54:37.129Z,4.00
2022-07-29T02:55:37.139Z,8.00
2022-07-29T02:56:37.149Z,8.00
2022-07-29T02:57:55.052Z,8.00
2022-07-29T02:58:37.120Z,8.00
2022-07-29T02:59:37.120Z,8.00
2022-07-29T03:00:37.129Z,12.00
2022-07-29T03:01:37.149Z,12.00
2022-07-29T03:02:37.136Z,12.00
2022-07-29T03:03:37.120Z,12.00
2022-07-29T03:04:37.234Z,16.00
2022-07-29T03:05:37.121Z,16.00
2022-07-29T03:06:38.604Z,20.00
2022-07-29T03:07:37.138Z,20.00
2022-07-29T03:08:37.144Z,24.00
2022-07-29T03:09:37.134Z,24.00
2022-07-29T03:10:37.132Z,28.00
2022-07-29T03:11:42.321Z,32.00
2022-07-29T03:12:37.121Z,32.00
2022-07-29T03:13:37.121Z,40.00
2022-07-29T03:14:37.120Z,36.00
2022-07-29T03:15:37.173Z,44.00
2022-07-29T03:16:41.031Z,44.00
2022-07-29T03:17:37.123Z,52.00
2022-07-29T03:18:37.150Z,52.00
2022-07-29T03:19:37.119Z,60.00
2022-07-29T03:20:37.142Z,64.00
2022-07-29T03:21:37.124Z,64.00
2022-07-29T03:22:37.137Z,68.00
2022-07-29T03:23:37.124Z,68.00
2022-07-29T03:24:37.144Z,72.00
2022-07-29T03:25:37.116Z,76.00
2022-07-29T03:26:37.115Z,80.00
2022-07-29T03:27:37.120Z,84.00
2022-07-29T03:28:37.121Z,92.00
2022-07-29T03:29:37.120Z,96.00
2022-07-29T03:30:37.118Z,104.00
2022-07-29T03:31:37.178Z,112.00
2022-07-29T03:32:37.119Z,116.00
2022-07-29T03:33:37.168Z,124.00
2022-07-29T03:34:37.143Z,132.00
2022-07-29T03:35:37.126Z,148.00
2022-07-29T03:36:37.161Z,156.00
2022-07-29T03:37:37.142Z,172.00
2022-07-29T03:38:37.116Z,188.00
2022-07-29T03:39:37.124Z,208.00
2022-07-29T03:40:37.113Z,232.00
2022-07-29T03:41:37.117Z,252.00
2022-07-29T03:42:37.125Z,280.00
2022-07-29T03:43:37.115Z,308.00
2022-07-29T03:44:37.136Z,336.00
2022-07-29T03:45:37.116Z,364.00
2022-07-29T03:46:37.156Z,388.00
2022-07-29T03:47:50.063Z,416.00
2022-07-29T03:48:37.171Z,436.00
2022-07-29T03:49:37.134Z,452.00
2022-07-29T03:50:37.129Z,476.00
2022-07-29T03:51:37.130Z,492.00
2022-07-29T03:52:37.123Z,508.00
2022-07-29T03:53:37.118Z,536.00
2022-07-29T03:54:37.117Z,572.00
2022-07-29T03:55:37.109Z,616.00
2022-07-29T03:56:37.109Z,656.00
2022-07-29T03:57:37.119Z,704.00
2022-07-29T03:58:37.116Z,736.00
2022-07-29T03:59:37.111Z,768.00
2022-07-29T04:00:37.116Z,808.00
2022-07-29T04:01:37.127Z,836.00
2022-07-29T04:02:37.141Z,848.00
2022-07-29T04:03:37.208Z,856.00
2022-07-29T04:04:37.167Z,868.00
2022-07-29T04:05:37.130Z,876.00
2022-07-29T04:06:37.115Z,880.00
2022-07-29T04:07:37.108Z,892.00
2022-07-29T04:08:37.174Z,912.00
2022-07-29T04:09:37.111Z,948.00
2022-07-29T04:10:37.124Z,996.00
2022-07-29T04:12:03.815Z,1056.00
2022-07-29T04:12:37.110Z,1108.00
2022-07-29T04:13:37.105Z,1152.00
2022-07-29T04:14:37.126Z,1184.00
2022-07-29T04:15:37.195Z,1204.00
2022-07-29T04:16:37.105Z,1208.00
2022-07-29T04:17:37.127Z,1204.00
2022-07-29T04:18:37.117Z,1204.00
2022-07-29T04:19:37.127Z,1204.00
2022-07-29T04:20:37.118Z,1204.00
2022-07-29T04:21:37.114Z,1204.00
2022-07-29T04:22:37.133Z,1212.00
2022-07-29T04:23:53.134Z,1248.00
2022-07-29T04:24:37.105Z,1304.00
2022-07-29T04:25:37.108Z,1380.00
2022-07-29T04:26:37.123Z,1456.00
2022-07-29T04:27:37.109Z,1540.00
2022-07-29T04:28:37.108Z,1624.00
2022-07-29T04:29:37.115Z,1696.00
2022-07-29T04:30:37.113Z,1768.00
2022-07-29T04:31:37.178Z,1824.00
2022-07-29T04:32:37.110Z,1860.00
2022-07-29T04:33:37.194Z,1896.00
2022-07-29T04:34:37.128Z,1940.00
2022-07-29T04:35:38.587Z,1964.00
2022-07-29T04:36:37.108Z,1988.00
2022-07-29T04:37:37.115Z,2008.00
2022-07-29T04:38:37.109Z,2016.00
2022-07-29T04:39:37.107Z,2016.00
2022-07-29T04:40:38.497Z,2004.00
2022-07-29T04:41:37.153Z,1984.00
2022-07-29T04:42:43.998Z,1976.00
2022-07-29T04:43:37.106Z,1980.00
2022-07-29T04:44:39.467Z,2000.00
2022-07-29T04:45:37.116Z,2032.00
2022-07-29T04:46:37.214Z,2084.00
2022-07-29T04:47:37.115Z,2140.00
2022-07-29T04:48:37.181Z,2200.00
2022-07-29T04:49:37.112Z,2264.00
2022-07-29T04:50:37.186Z,2352.00
2022-07-29T04:51:37.107Z,2460.00
2022-07-29T04:52:37.118Z,2536.00
2022-07-29T04:53:37.131Z,2584.00
2022-07-29T04:54:37.111Z,2608.00
2022-07-29T04:55:37.138Z,2584.00
2022-07-29T04:56:37.112Z,2540.00
2022-07-29T04:57:37.111Z,2472.00
2022-07-29T04:58:37.143Z,2424.00
2022-07-29T04:59:37.113Z,2408.00
2022-07-29T05:00:37.121Z,2428.00
2022-07-29T05:01:37.161Z,2468.00
2022-07-29T05:02:37.203Z,2516.00
2022-07-29T05:03:37.132Z,2608.00
2022-07-29T05:04:37.128Z,2712.00
2022-07-29T05:05:37.129Z,2844.00
2022-07-29T05:06:37.111Z,3000.00
2022-07-29T05:07:37.111Z,3196.00
2022-07-29T05:08:37.114Z,3380.00
2022-07-29T05:09:37.157Z,3544.00
2022-07-29T05:10:37.129Z,3680.00
2022-07-29T05:11:37.149Z,3736.00
2022-07-29T05:12:37.113Z,3756.00
2022-07-29T05:13:45.837Z,3788.00
2022-07-29T05:14:44.345Z,3832.00
2022-07-29T05:16:41.136Z,3884.00
2022-07-29T05:17:41.106Z,3852.00
2022-07-29T05:19:45.094Z,3604.00
2022-07-29T05:20:45.089Z,3404.00
2022-07-29T05:22:49.102Z,2772.00
2022-07-29T05:23:49.110Z,2484.00
2022-07-29T05:25:44.641Z,2212.00
2022-07-29T05:26:41.986Z,1972.00
2022-07-29T05:28:46.032Z,1444.00
2022-07-29T05:29:46.071Z,1276.00
2022-07-29T05:31:50.049Z,1080.00
2022-07-29T05:32:50.046Z,1016.00
2022-07-29T05:34:54.094Z,1004.00
2022-07-29T05:35:58.514Z,1028.00
2022-07-29T05:37:58.030Z,1144.00
2022-07-29T05:38:58.010Z,1232.00
2022-07-29T05:41:02.018Z,1492.00
2022-07-29T05:42:01.998Z,1680.00
2022-07-29T05:44:05.991Z,2208.00
2022-07-29T05:45:06.011Z,2508.00
2022-07-29T05:47:10.000Z,3200.00
2022-07-29T05:48:09.988Z,3600.00
2022-07-29T05:50:13.985Z,7012.00
2022-07-29T05:51:13.976Z,6020.00
2022-07-29T05:53:19.890Z,10272.00
2022-07-29T05:54:18.454Z,23200.00
2022-07-29T05:56:21.975Z,39424.00
2022-07-29T05:57:21.953Z,55200.00
2022-07-29T05:59:30.132Z,53984.00
2022-07-29T06:00:25.940Z,46624.00
2022-07-29T06:01:26.028Z,41632.00
2022-07-29T06:02:25.949Z,29728.00
2022-07-29T06:03:25.951Z,23136.00
2022-07-29T06:04:25.990Z,15300.00
2022-07-29T06:05:25.962Z,14488.00
2022-07-29T06:06:26.014Z,10884.00
2022-07-29T06:07:25.969Z,12052.00
2022-07-29T06:08:25.975Z,12252.00
2022-07-29T06:09:25.986Z,11200.00
2022-07-29T06:10:26.241Z,13504.00
2022-07-29T06:11:25.975Z,18816.00
2022-07-29T06:12:25.989Z,22336.00
2022-07-29T06:13:25.992Z,28704.00
2022-07-29T06:14:25.997Z,30688.00
2022-07-29T06:15:25.992Z,18688.00
2022-07-29T06:16:29.838Z,14260.00
2022-07-29T06:17:26.019Z,14408.00
2022-07-29T06:18:26.005Z,13464.00
2022-07-29T06:19:26.051Z,15180.00
2022-07-29T06:20:26.933Z,31200.00
2022-07-29T06:21:26.013Z,28736.00
2022-07-29T06:22:26.018Z,14776.00
2022-07-29T06:23:26.023Z,14648.00
2022-07-29T06:24:26.028Z,15804.00
2022-07-29T06:25:26.037Z,13652.00
2022-07-29T06:26:30.748Z,11232.00
2022-07-29T06:27:26.047Z,13376.00
2022-07-29T06:28:26.044Z,15044.00
2022-07-29T06:29:26.049Z,14280.00
2022-07-29T06:30:26.186Z,13876.00
2022-07-29T06:31:26.119Z,13500.00
2022-07-29T06:32:27.399Z,12356.00
2022-07-29T06:33:26.064Z,16928.00
2022-07-29T06:34:26.091Z,15292.00
2022-07-29T06:35:38.989Z,12672.00
2022-07-29T06:36:26.090Z,17568.00
2022-07-29T06:37:26.080Z,15644.00
2022-07-29T06:38:33.703Z,14648.00
2022-07-29T06:39:26.094Z,15364.00
2022-07-29T06:40:26.212Z,10120.00
2022-07-29T06:41:26.121Z,8460.00
2022-07-29T06:42:26.114Z,7440.00
2022-07-29T06:43:26.420Z,6316.00
2022-07-29T06:44:26.138Z,5564.00
2022-07-29T06:45:26.109Z,4884.00
2022-07-29T06:46:26.196Z,4336.00
2022-07-29T06:47:26.124Z,3904.00
2022-07-29T06:48:26.142Z,3656.00
2022-07-29T06:49:26.245Z,3564.00
2022-07-29T06:50:26.139Z,3604.00
2022-07-29T06:51:26.137Z,3748.00
2022-07-29T06:52:26.133Z,3956.00
2022-07-29T06:53:26.130Z,4136.00
2022-07-29T06:54:26.135Z,4264.00
2022-07-29T06:55:26.148Z,4372.00
2022-07-29T06:56:26.148Z,4396.00
2022-07-29T06:57:26.154Z,4444.00
2022-07-29T06:58:26.150Z,4568.00
2022-07-29T06:59:33.432Z,4764.00
2022-07-29T07:00:26.171Z,5180.00
2022-07-29T07:01:26.218Z,5632.00
2022-07-29T07:02:26.188Z,6152.00
2022-07-29T07:03:26.188Z,7164.00
2022-07-29T07:04:26.179Z,8972.00
2022-07-29T07:05:26.169Z,15604.00
2022-07-29T07:06:26.189Z,76000.00
2022-07-29T07:07:26.168Z,82464.00
2022-07-29T07:08:26.174Z,72288.00
2022-07-29T07:09:26.182Z,75776.00
2022-07-29T07:10:26.177Z,70912.00
2022-07-29T07:11:26.197Z,57248.00
2022-07-29T07:12:26.235Z,46144.00
2022-07-29T07:13:26.215Z,36992.00
2022-07-29T07:14:26.207Z,29568.00
2022-07-29T07:15:39.035Z,26880.00
2022-07-29T07:16:26.261Z,31968.00
2022-07-29T07:17:26.257Z,22592.00
2022-07-29T07:18:26.237Z,26976.00
2022-07-29T07:19:26.255Z,27072.00
2022-07-29T07:20:26.243Z,19488.00
2022-07-29T07:21:26.247Z,27552.00
2022-07-29T07:22:26.261Z,46048.00
2022-07-29T07:23:26.268Z,43200.00
2022-07-29T07:24:26.295Z,20256.00
2022-07-29T07:25:26.295Z,49632.00
2022-07-29T07:26:26.328Z,55328.00
2022-07-29T07:27:26.337Z,59648.00
2022-07-29T07:28:26.303Z,52512.00
2022-07-29T07:29:26.310Z,72096.00
2022-07-29T07:30:26.322Z,90784.00
2022-07-29T07:31:26.393Z,96704.00
2022-07-29T07:32:26.410Z,94880.00
2022-07-29T07:33:26.343Z,94656.00
2022-07-29T07:34:29.310Z,81248.00
2022-07-29T07:35:26.376Z,84192.00
2022-07-29T07:36:26.400Z,89920.00
2022-07-29T07:37:26.398Z,83008.00
2022-07-29T07:38:26.405Z,84800.00
2022-07-29T07:39:26.411Z,85184.00
2022-07-29T07:40:26.413Z,80768.00
2022-07-29T07:41:26.478Z,82880.00
2022-07-29T07:42:26.507Z,80608.00
2022-07-29T07:43:26.469Z,80096.00
2022-07-29T07:44:26.466Z,82944.00
2022-07-29T07:45:26.581Z,78080.00
2022-07-29T07:46:26.603Z,81568.00
2022-07-29T07:47:28.029Z,83776.00
2022-07-29T07:48:26.526Z,83040.00
2022-07-29T07:49:26.626Z,84352.00
2022-07-29T07:50:26.549Z,86816.00
2022-07-29T07:51:26.577Z,87776.00
2022-07-29T07:52:26.576Z,88992.00
2022-07-29T07:53:26.603Z,87392.00
2022-07-29T07:54:26.693Z,88768.00
2022-07-29T07:55:26.653Z,87584.00
2022-07-29T07:56:28.007Z,84000.00
2022-07-29T07:57:26.654Z,85184.00
2022-07-29T07:58:26.667Z,85632.00
2022-07-29T07:59:26.675Z,80896.00
2022-07-29T08:00:26.693Z,79296.00
2022-07-29T08:01:26.785Z,84128.00
2022-07-29T08:02:26.737Z,86048.00
2022-07-29T08:03:26.743Z,64160.00
2022-07-29T08:04:28.477Z,73664.00
2022-07-29T08:05:26.772Z,58784.00
2022-07-29T08:06:26.786Z,56448.00
2022-07-29T08:07:26.804Z,72832.00
2022-07-29T08:08:26.825Z,39008.00
2022-07-29T08:09:29.758Z,27680.00
2022-07-29T08:10:26.858Z,20128.00
2022-07-29T08:11:26.864Z,25664.00
2022-07-29T08:12:26.886Z,19296.00
2022-07-29T08:13:26.890Z,19072.00
2022-07-29T08:14:26.910Z,16416.00
2022-07-29T08:15:26.921Z,24288.00
2022-07-29T08:16:26.985Z,17632.00
2022-07-29T08:17:26.951Z,17216.00
2022-07-29T08:18:26.958Z,15320.00
2022-07-29T08:19:26.985Z,16192.00
2022-07-29T08:20:27.000Z,16064.00
2022-07-29T08:21:27.036Z,15268.00
2022-07-29T08:22:27.018Z,17888.00
2022-07-29T08:23:29.298Z,18720.00
2022-07-29T08:24:27.043Z,16896.00
2022-07-29T08:25:27.056Z,13592.00
2022-07-29T08:26:27.126Z,13248.00
2022-07-29T08:27:43.376Z,13188.00
2022-07-29T08:28:27.087Z,12052.00
2022-07-29T08:29:27.095Z,11980.00
2022-07-29T08:30:27.103Z,11892.00
2022-07-29T08:31:27.132Z,11588.00
2022-07-29T08:32:51.888Z,11884.00
2022-07-29T08:33:27.141Z,11376.00
2022-07-29T08:34:27.792Z,11912.00
2022-07-29T08:35:28.470Z,12840.00
2022-07-29T08:36:27.184Z,13232.00
2022-07-29T08:37:27.177Z,13520.00
2022-07-29T08:38:27.203Z,13744.00
2022-07-29T08:39:27.221Z,13244.00
2022-07-29T08:40:31.960Z,12812.00
2022-07-29T08:41:27.224Z,12132.00
2022-07-29T08:42:27.223Z,11816.00
2022-07-29T08:43:27.262Z,11600.00
2022-07-29T08:44:30.492Z,10400.00
2022-07-29T08:45:27.339Z,9788.00
2022-07-29T08:46:27.274Z,9136.00
2022-07-29T08:47:27.285Z,8916.00
2022-07-29T08:48:27.276Z,8672.00
2022-07-29T08:49:27.375Z,8336.00
2022-07-29T08:50:27.292Z,7900.00
2022-07-29T08:51:27.318Z,7612.00
2022-07-29T08:52:27.322Z,7400.00
2022-07-29T08:53:27.354Z,7228.00
2022-07-29T08:54:27.331Z,7020.00
2022-07-29T08:55:27.333Z,6748.00
2022-07-29T08:56:27.339Z,6528.00
2022-07-29T08:57:27.348Z,6336.00
2022-07-29T08:58:27.362Z,6220.00
2022-07-29T08:59:27.358Z,6232.00
2022-07-29T09:00:27.365Z,6308.00
2022-07-29T09:01:35.972Z,6488.00
2022-07-29T09:02:27.413Z,6824.00
2022-07-29T09:03:27.410Z,7048.00
2022-07-29T09:04:27.396Z,7252.00
2022-07-29T09:05:27.435Z,7640.00
2022-07-29T09:06:27.413Z,8152.00
2022-07-29T09:07:27.419Z,8588.00
2022-07-29T09:08:27.428Z,9176.00
2022-07-29T09:09:27.429Z,9804.00
2022-07-29T09:10:27.432Z,10212.00
2022-07-29T09:11:27.441Z,10384.00
2022-07-29T09:12:29.518Z,10296.00
2022-07-29T09:13:27.461Z,9592.00
2022-07-29T09:14:27.476Z,9056.00
2022-07-29T09:15:27.483Z,8964.00
2022-07-29T09:16:51.926Z,9128.00
2022-07-29T09:17:27.563Z,9348.00
2022-07-29T09:18:31.219Z,9512.00
2022-07-29T09:19:27.498Z,9588.00
2022-07-29T09:20:27.503Z,9416.00
2022-07-29T09:21:27.515Z,9280.00
2022-07-29T09:22:27.517Z,9356.00
2022-07-29T09:23:27.568Z,9260.00
2022-07-29T09:24:27.527Z,8888.00
2022-07-29T09:25:27.539Z,9276.00
2022-07-29T09:26:27.545Z,8440.00
2022-07-29T09:27:27.572Z,8324.00
2022-07-29T09:28:27.550Z,8252.00
2022-07-29T09:29:27.569Z,8244.00
2022-07-29T09:30:31.876Z,8272.00
2022-07-29T09:31:27.608Z,8104.00
2022-07-29T09:32:27.593Z,7940.00
2022-07-29T09:33:27.590Z,7784.00
2022-07-29T09:34:27.601Z,7744.00
2022-07-29T09:35:27.639Z,7784.00
2022-07-29T09:36:27.621Z,7856.00
2022-07-29T09:37:27.615Z,7924.00
2022-07-29T09:38:27.610Z,8092.00
2022-07-29T09:39:27.639Z,8232.00
2022-07-29T09:40:27.643Z,8264.00
2022-07-29T09:41:27.634Z,8116.00
2022-07-29T09:42:27.634Z,7904.00
2022-07-29T09:43:27.655Z,7664.00
2022-07-29T09:44:27.668Z,7464.00
2022-07-29T09:45:27.660Z,7424.00
2022-07-29T09:46:27.730Z,7396.00
2022-07-29T09:47:27.708Z,7444.00
2022-07-29T09:48:27.690Z,7688.00
2022-07-29T09:49:27.783Z,7776.00
2022-07-29T09:50:27.691Z,8040.00
2022-07-29T09:51:38.045Z,8268.00
2022-07-29T09:52:27.707Z,8464.00
2022-07-29T09:53:27.707Z,8544.00
2022-07-29T09:54:27.718Z,8776.00
2022-07-29T09:55:27.715Z,9112.00
2022-07-29T09:56:27.732Z,9260.00
2022-07-29T09:57:30.878Z,9000.00
2022-07-29T09:58:27.791Z,8804.00
2022-07-29T09:59:27.754Z,8720.00
2022-07-29T10:00:27.773Z,8620.00
2022-07-29T10:01:27.793Z,8800.00
2022-07-29T10:02:27.769Z,8872.00
2022-07-29T10:03:27.810Z,8700.00
2022-07-29T10:04:27.775Z,8288.00
2022-07-29T10:05:36.595Z,8184.00
2022-07-29T10:06:27.818Z,8144.00
2022-07-29T10:07:27.794Z,7944.00
2022-07-29T10:08:27.814Z,8040.00
2022-07-29T10:09:27.814Z,8060.00
2022-07-29T10:10:27.811Z,8048.00
2022-07-29T10:11:27.829Z,7948.00
2022-07-29T10:12:27.828Z,7380.00
2022-07-29T10:13:27.864Z,7316.00
2022-07-29T10:14:27.881Z,7132.00
2022-07-29T10:15:27.853Z,6884.00
2022-07-29T10:16:27.905Z,6708.00
2022-07-29T10:17:27.865Z,6612.00
2022-07-29T10:18:27.874Z,6476.00
2022-07-29T10:19:27.879Z,6240.00
2022-07-29T10:20:27.873Z,6300.00
2022-07-29T10:21:36.215Z,6356.00
2022-07-29T10:22:52.020Z,6408.00
2022-07-29T10:23:27.988Z,6532.00
2022-07-29T10:24:27.904Z,6452.00
2022-07-29T10:25:27.957Z,6496.00
2022-07-29T10:26:27.911Z,6588.00
2022-07-29T10:27:27.908Z,6804.00
2022-07-29T10:28:27.928Z,6724.00
2022-07-29T10:29:27.924Z,6812.00
2022-07-29T10:30:27.935Z,6876.00
2022-07-29T10:31:27.983Z,6972.00
2022-07-29T10:32:27.960Z,7016.00
2022-07-29T10:33:27.950Z,7072.00
2022-07-29T10:34:27.966Z,7144.00
2022-07-29T10:35:27.962Z,7184.00
2022-07-29T10:36:27.960Z,7176.00
2022-07-29T10:37:27.977Z,7288.00
2022-07-29T10:38:27.976Z,7568.00
2022-07-29T10:39:34.384Z,7612.00
2022-07-29T10:40:27.979Z,7936.00
2022-07-29T10:41:29.091Z,7688.00
2022-07-29T10:42:29.585Z,8508.00
2022-07-29T10:43:28.002Z,8432.00
2022-07-29T10:44:28.009Z,8400.00
2022-07-29T10:45:28.012Z,8252.00
2022-07-29T10:46:28.108Z,8176.00
2022-07-29T10:47:28.027Z,7624.00
2022-07-29T10:48:28.030Z,7056.00
2022-07-29T10:49:30.489Z,6680.00
2022-07-29T10:50:28.044Z,6180.00
2022-07-29T10:51:28.047Z,5708.00
2022-07-29T10:52:30.321Z,5304.00
2022-07-29T10:53:28.081Z,4968.00
2022-07-29T10:54:28.063Z,4760.00
2022-07-29T10:55:28.094Z,4544.00
2022-07-29T10:56:28.078Z,4316.00
2022-07-29T10:57:53.926Z,4132.00
2022-07-29T10:58:28.085Z,3972.00
2022-07-29T10:59:36.065Z,3872.00
2022-07-29T11:00:28.098Z,3832.00
2022-07-29T11:01:37.761Z,3844.00
2022-07-29T11:02:41.523Z,3912.00
2022-07-29T11:03:28.153Z,4224.00
2022-07-29T11:04:28.129Z,4080.00
2022-07-29T11:05:32.204Z,4052.00
2022-07-29T11:06:28.340Z,4148.00
2022-07-29T11:07:28.138Z,4276.00
2022-07-29T11:08:28.405Z,4440.00
2022-07-29T11:09:37.742Z,4580.00
2022-07-29T11:10:31.348Z,4724.00
2022-07-29T11:11:29.725Z,4872.00
2022-07-29T11:12:28.172Z,5112.00
2022-07-29T11:13:28.178Z,5480.00
2022-07-29T11:15:41.446Z,5784.00
2022-07-29T11:16:41.450Z,5868.00
2022-07-29T11:18:34.459Z,5788.00
2022-07-29T11:19:34.451Z,6068.00
2022-07-29T11:20:34.457Z,6008.00
2022-07-29T11:21:48.909Z,6240.00
2022-07-29T11:22:34.470Z,6340.00
2022-07-29T11:23:34.790Z,6200.00
2022-07-29T11:24:35.115Z,5816.00
2022-07-29T11:26:34.500Z,6048.00
2022-07-29T11:27:34.506Z,5852.00
2022-07-29T11:28:34.499Z,5380.00
2022-07-29T11:29:40.048Z,5176.00
2022-07-29T11:30:34.511Z,4928.00
2022-07-29T11:31:34.520Z,4656.00
2022-07-29T11:32:34.535Z,4416.00
2022-07-29T11:33:54.058Z,4100.00
2022-07-29T11:34:34.867Z,4112.00
2022-07-29T11:35:38.164Z,3976.00
2022-07-29T11:36:34.553Z,3852.00
2022-07-29T11:37:34.579Z,3748.00
2022-07-29T11:38:34.554Z,3664.00
2022-07-29T11:39:37.003Z,3616.00
2022-07-29T11:40:34.582Z,3572.00
2022-07-29T11:41:34.577Z,3564.00
2022-07-29T11:42:35.321Z,3552.00
2022-07-29T11:43:34.589Z,3540.00
2022-07-29T11:44:34.610Z,3524.00
2022-07-29T11:45:41.305Z,3456.00
2022-07-29T11:46:34.628Z,3276.00
2022-07-29T11:47:38.244Z,3308.00
2022-07-29T11:48:34.826Z,3160.00
2022-07-29T11:49:34.646Z,3200.00
2022-07-29T11:50:34.610Z,3192.00
2022-07-29T11:51:34.635Z,3216.00
2022-07-29T11:52:34.659Z,3232.00
2022-07-29T11:53:34.628Z,3236.00
2022-07-29T11:54:38.824Z,3244.00
2022-07-29T11:55:34.649Z,3292.00
2022-07-29T11:56:34.655Z,3336.00
2022-07-29T11:57:36.525Z,3436.00
2022-07-29T11:58:34.692Z,3512.00
2022-07-29T11:59:35.319Z,3568.00
2022-07-29T12:00:34.684Z,3588.00
2022-07-29T12:01:34.699Z,3576.00
2022-07-29T12:02:37.412Z,3556.00
2022-07-29T12:04:34.696Z,3484.00
2022-07-29T12:05:36.198Z,3508.00
2022-07-29T12:06:34.709Z,3560.00
2022-07-29T12:07:01.291Z,5980.00
2022-07-29T12:07:02.501Z,3532.00
2022-07-29T12:07:35.452Z,3652.00
2022-07-29T12:08:34.721Z,3872.00
2022-07-29T12:09:40.329Z,4132.00
2022-07-29T12:10:34.746Z,4336.00
2022-07-29T12:11:34.757Z,4372.00
2022-07-29T12:12:34.759Z,4212.00
2022-07-29T12:13:37.515Z,3412.00
2022-07-29T12:14:34.741Z,3972.00
2022-07-29T12:15:46.062Z,3696.00
2022-07-29T12:16:34.784Z,4068.00
2022-07-29T12:17:34.765Z,4304.00
2022-07-29T12:18:34.782Z,4332.00
2022-07-29T12:19:34.792Z,3928.00
2022-07-29T12:20:34.799Z,4024.00
2022-07-29T12:21:34.791Z,3712.00
2022-07-29T12:22:34.918Z,3540.00
2022-07-29T12:23:35.568Z,3836.00
2022-07-29T12:24:34.813Z,4112.00
2022-07-29T12:25:34.925Z,4096.00
2022-07-29T12:26:35.733Z,4116.00
2022-07-29T12:27:34.859Z,3916.00
2022-07-29T12:28:34.841Z,4136.00
2022-07-29T12:29:35.950Z,3952.00
2022-07-29T12:30:34.841Z,4080.00
2022-07-29T12:31:43.988Z,3704.00
2022-07-29T12:32:34.942Z,3548.00
2022-07-29T12:33:34.861Z,3296.00
2022-07-29T12:34:34.860Z,3480.00
2022-07-29T12:35:34.877Z,3884.00
2022-07-29T12:36:34.867Z,4520.00
2022-07-29T12:37:40.705Z,4504.00
2022-07-29T12:38:34.894Z,4484.00